sensor_id;sensor_type;location;lat;lon;timestamp;temperature;humidity
47354;DHT22;50657;48.830;2.282;2022-08-18T00:02:03;27.10;53.60
47354;DHT22;50657;48.830;2.282;2022-08-18T00:04:31;27.10;53.60
47354;DHT22;50657;48.830;2.282;2022-08-18T00:07:00;27.00;53.50
47354;DHT22;50657;48.830;2.282;2022-08-18T00:09:27;27.00;53.50
47354;DHT22;50657;48.830;2.282;2022-08-18T00:11:54;27.00;53.60
47354;DHT22;50657;48.830;2.282;2022-08-18T00:14:21;27.00;53.70
47354;DHT22;50657;48.830;2.282;2022-08-18T00:16:51;27.00;53.70
47354;DHT22;50657;48.830;2.282;2022-08-18T00:19:20;26.90;53.70
47354;DHT22;50657;48.830;2.282;2022-08-18T00:21:47;26.90;53.70
47354;DHT22;50657;48.830;2.282;2022-08-18T00:24:14;26.90;53.80
47354;DHT22;50657;48.830;2.282;2022-08-18T00:26:41;26.90;53.80
47354;DHT22;50657;48.830;2.282;2022-08-18T00:29:08;26.90;53.80
47354;DHT22;50657;48.830;2.282;2022-08-18T00:31:35;26.90;53.90
47354;DHT22;50657;48.830;2.282;2022-08-18T00:34:03;26.90;53.80
47354;DHT22;50657;48.830;2.282;2022-08-18T00:36:33;26.80;53.80
47354;DHT22;50657;48.830;2.282;2022-08-18T00:39:00;26.80;53.80
47354;DHT22;50657;48.830;2.282;2022-08-18T00:41:27;26.80;53.80
47354;DHT22;50657;48.830;2.282;2022-08-18T00:43:55;26.80;53.90
47354;DHT22;50657;48.830;2.282;2022-08-18T00:46:25;26.70;53.80
47354;DHT22;50657;48.830;2.282;2022-08-18T00:48:52;26.70;53.90
47354;DHT22;50657;48.830;2.282;2022-08-18T00:51:23;26.70;54.00
47354;DHT22;50657;48.830;2.282;2022-08-18T00:53:55;26.70;54.00
47354;DHT22;50657;48.830;2.282;2022-08-18T00:56:28;26.70;54.00
47354;DHT22;50657;48.830;2.282;2022-08-18T00:59:01;26.70;54.00
47354;DHT22;50657;48.830;2.282;2022-08-18T01:01:31;26.70;54.00
47354;DHT22;50657;48.830;2.282;2022-08-18T01:04:06;26.60;54.00
47354;DHT22;50657;48.830;2.282;2022-08-18T01:06:39;26.60;54.10
47354;DHT22;50657;48.830;2.282;2022-08-18T01:09:10;26.60;54.00
47354;DHT22;50657;48.830;2.282;2022-08-18T01:11:38;26.60;54.10
47354;DHT22;50657;48.830;2.282;2022-08-18T01:14:07;26.60;54.10
47354;DHT22;50657;48.830;2.282;2022-08-18T01:16:35;26.50;54.20
47354;DHT22;50657;48.830;2.282;2022-08-18T01:19:21;26.50;54.20
47354;DHT22;50657;48.830;2.282;2022-08-18T01:22:18;26.50;54.20
47354;DHT22;50657;48.830;2.282;2022-08-18T01:24:49;26.50;54.30
47354;DHT22;50657;48.830;2.282;2022-08-18T01:27:34;26.50;54.40
47354;DHT22;50657;48.830;2.282;2022-08-18T01:30:06;26.40;54.40
47354;DHT22;50657;48.830;2.282;2022-08-18T01:32:35;26.40;54.30
47354;DHT22;50657;48.830;2.282;2022-08-18T01:35:04;26.40;54.40
47354;DHT22;50657;48.830;2.282;2022-08-18T01:37:34;26.40;54.40
47354;DHT22;50657;48.830;2.282;2022-08-18T01:40:04;26.40;54.30
47354;DHT22;50657;48.830;2.282;2022-08-18T01:42:32;26.30;54.30
47354;DHT22;50657;48.830;2.282;2022-08-18T01:45:00;26.30;54.30
47354;DHT22;50657;48.830;2.282;2022-08-18T01:47:29;26.30;54.30
47354;DHT22;50657;48.830;2.282;2022-08-18T01:49:58;26.30;54.40
47354;DHT22;50657;48.830;2.282;2022-08-18T01:52:26;26.30;54.40
47354;DHT22;50657;48.830;2.282;2022-08-18T01:54:55;26.20;54.40
47354;DHT22;50657;48.830;2.282;2022-08-18T01:57:24;26.30;54.50
47354;DHT22;50657;48.830;2.282;2022-08-18T01:59:51;26.20;54.50
47354;DHT22;50657;48.830;2.282;2022-08-18T02:02:22;26.20;54.50
47354;DHT22;50657;48.830;2.282;2022-08-18T02:04:51;26.20;54.60
47354;DHT22;50657;48.830;2.282;2022-08-18T02:07:20;26.20;54.60
47354;DHT22;50657;48.830;2.282;2022-08-18T02:09:47;26.20;54.70
47354;DHT22;50657;48.830;2.282;2022-08-18T02:12:15;26.10;54.50
47354;DHT22;50657;48.830;2.282;2022-08-18T02:14:43;26.10;54.50
47354;DHT22;50657;48.830;2.282;2022-08-18T02:17:11;26.10;55.10
47354;DHT22;50657;48.830;2.282;2022-08-18T02:19:42;26.10;54.50
47354;DHT22;50657;48.830;2.282;2022-08-18T02:22:12;26.10;54.50
47354;DHT22;50657;48.830;2.282;2022-08-18T02:24:40;26.10;54.40
47354;DHT22;50657;48.830;2.282;2022-08-18T02:27:08;26.10;54.30
47354;DHT22;50657;48.830;2.282;2022-08-18T02:29:36;26.10;54.20
47354;DHT22;50657;48.830;2.282;2022-08-18T02:32:06;26.10;54.00
47354;DHT22;50657;48.830;2.282;2022-08-18T02:34:34;26.10;53.80
47354;DHT22;50657;48.830;2.282;2022-08-18T02:37:02;26.00;53.60
47354;DHT22;50657;48.830;2.282;2022-08-18T02:39:29;26.00;53.40
47354;DHT22;50657;48.830;2.282;2022-08-18T02:41:56;26.00;53.30
47354;DHT22;50657;48.830;2.282;2022-08-18T02:44:23;26.00;53.30
47354;DHT22;50657;48.830;2.282;2022-08-18T02:46:52;26.00;53.30
47354;DHT22;50657;48.830;2.282;2022-08-18T02:49:21;26.00;53.20
47354;DHT22;50657;48.830;2.282;2022-08-18T02:51:48;25.90;53.00
47354;DHT22;50657;48.830;2.282;2022-08-18T02:54:16;25.90;53.00
47354;DHT22;50657;48.830;2.282;2022-08-18T02:56:44;25.90;53.00
47354;DHT22;50657;48.830;2.282;2022-08-18T02:59:15;25.90;53.00
47354;DHT22;50657;48.830;2.282;2022-08-18T03:01:45;25.90;53.50
47354;DHT22;50657;48.830;2.282;2022-08-18T03:04:15;25.90;52.80
47354;DHT22;50657;48.830;2.282;2022-08-18T03:06:45;25.80;52.70
47354;DHT22;50657;48.830;2.282;2022-08-18T03:09:14;25.80;52.80
47354;DHT22;50657;48.830;2.282;2022-08-18T03:11:42;25.80;52.70
47354;DHT22;50657;48.830;2.282;2022-08-18T03:14:09;25.70;52.70
47354;DHT22;50657;48.830;2.282;2022-08-18T03:16:37;25.70;52.70
47354;DHT22;50657;48.830;2.282;2022-08-18T03:19:05;25.80;52.80
47354;DHT22;50657;48.830;2.282;2022-08-18T03:21:33;25.70;52.70
47354;DHT22;50657;48.830;2.282;2022-08-18T03:24:04;25.70;52.70
47354;DHT22;50657;48.830;2.282;2022-08-18T03:26:32;25.70;52.70
47354;DHT22;50657;48.830;2.282;2022-08-18T03:29:00;25.70;52.70
47354;DHT22;50657;48.830;2.282;2022-08-18T03:31:29;25.60;52.60
47354;DHT22;50657;48.830;2.282;2022-08-18T03:33:57;25.70;52.70
47354;DHT22;50657;48.830;2.282;2022-08-18T03:36:27;25.60;52.60
47354;DHT22;50657;48.830;2.282;2022-08-18T03:38:55;25.60;52.60
47354;DHT22;50657;48.830;2.282;2022-08-18T03:41:25;25.60;52.70
47354;DHT22;50657;48.830;2.282;2022-08-18T03:43:52;25.60;52.60
47354;DHT22;50657;48.830;2.282;2022-08-18T03:46:21;25.60;52.60
47354;DHT22;50657;48.830;2.282;2022-08-18T03:48:48;25.60;52.60
47354;DHT22;50657;48.830;2.282;2022-08-18T03:51:18;25.60;52.60
47354;DHT22;50657;48.830;2.282;2022-08-18T03:53:47;25.60;52.70
47354;DHT22;50657;48.830;2.282;2022-08-18T03:56:17;25.60;52.70
47354;DHT22;50657;48.830;2.282;2022-08-18T03:58:48;25.50;52.60
47354;DHT22;50657;48.830;2.282;2022-08-18T04:01:18;25.50;52.50
47354;DHT22;50657;48.830;2.282;2022-08-18T04:03:47;25.50;52.50
47354;DHT22;50657;48.830;2.282;2022-08-18T04:06:15;25.50;52.50
47354;DHT22;50657;48.830;2.282;2022-08-18T04:08:42;25.50;53.20
47354;DHT22;50657;48.830;2.282;2022-08-18T04:11:11;25.50;52.60
47354;DHT22;50657;48.830;2.282;2022-08-18T04:13:39;25.40;52.50
47354;DHT22;50657;48.830;2.282;2022-08-18T04:16:08;25.40;52.50
47354;DHT22;50657;48.830;2.282;2022-08-18T04:18:35;25.40;52.50
47354;DHT22;50657;48.830;2.282;2022-08-18T04:21:03;25.40;52.50
47354;DHT22;50657;48.830;2.282;2022-08-18T04:23:32;25.40;52.50
47354;DHT22;50657;48.830;2.282;2022-08-18T04:26:00;25.40;52.50
47354;DHT22;50657;48.830;2.282;2022-08-18T04:28:28;25.40;52.60
47354;DHT22;50657;48.830;2.282;2022-08-18T04:30:56;25.40;52.60
47354;DHT22;50657;48.830;2.282;2022-08-18T04:33:25;25.40;52.60
47354;DHT22;50657;48.830;2.282;2022-08-18T04:35:53;25.40;52.60
47354;DHT22;50657;48.830;2.282;2022-08-18T04:38:21;25.40;52.60
47354;DHT22;50657;48.830;2.282;2022-08-18T04:40:49;25.30;52.60
47354;DHT22;50657;48.830;2.282;2022-08-18T04:43:16;25.30;52.60
47354;DHT22;50657;48.830;2.282;2022-08-18T04:45:44;25.30;52.60
47354;DHT22;50657;48.830;2.282;2022-08-18T04:48:12;25.30;52.70
47354;DHT22;50657;48.830;2.282;2022-08-18T04:50:42;25.30;52.80
47354;DHT22;50657;48.830;2.282;2022-08-18T04:53:09;25.30;52.70
47354;DHT22;50657;48.830;2.282;2022-08-18T04:56:06;25.30;52.80
47354;DHT22;50657;48.830;2.282;2022-08-18T04:58:33;25.30;52.80
47354;DHT22;50657;48.830;2.282;2022-08-18T05:01:00;25.30;52.80
47354;DHT22;50657;48.830;2.282;2022-08-18T05:03:27;25.30;52.90
47354;DHT22;50657;48.830;2.282;2022-08-18T05:05:57;25.30;52.90
47354;DHT22;50657;48.830;2.282;2022-08-18T05:08:25;25.30;52.90
47354;DHT22;50657;48.830;2.282;2022-08-18T05:10:52;25.30;52.90
47354;DHT22;50657;48.830;2.282;2022-08-18T05:13:20;25.30;53.00
47354;DHT22;50657;48.830;2.282;2022-08-18T05:15:51;25.30;53.00
47354;DHT22;50657;48.830;2.282;2022-08-18T05:18:19;25.20;53.00
47354;DHT22;50657;48.830;2.282;2022-08-18T05:20:50;25.20;53.10
47354;DHT22;50657;48.830;2.282;2022-08-18T05:23:19;25.20;53.10
47354;DHT22;50657;48.830;2.282;2022-08-18T05:25:46;25.20;53.20
47354;DHT22;50657;48.830;2.282;2022-08-18T05:28:14;25.20;53.30
47354;DHT22;50657;48.830;2.282;2022-08-18T05:30:41;25.20;53.80
47354;DHT22;50657;48.830;2.282;2022-08-18T05:33:08;25.20;53.30
47354;DHT22;50657;48.830;2.282;2022-08-18T05:35:40;25.20;53.30
47354;DHT22;50657;48.830;2.282;2022-08-18T05:38:23;25.10;53.30
47354;DHT22;50657;48.830;2.282;2022-08-18T05:41:04;25.20;53.40
47354;DHT22;50657;48.830;2.282;2022-08-18T05:43:34;25.10;53.30
47354;DHT22;50657;48.830;2.282;2022-08-18T05:46:02;25.10;53.30
47354;DHT22;50657;48.830;2.282;2022-08-18T05:48:31;25.10;53.40
47354;DHT22;50657;48.830;2.282;2022-08-18T05:51:00;25.00;53.20
47354;DHT22;50657;48.830;2.282;2022-08-18T05:53:30;25.00;53.20
47354;DHT22;50657;48.830;2.282;2022-08-18T05:56:12;25.10;53.30
47354;DHT22;50657;48.830;2.282;2022-08-18T05:58:58;25.00;53.20
47354;DHT22;50657;48.830;2.282;2022-08-18T06:01:38;25.00;53.30
47354;DHT22;50657;48.830;2.282;2022-08-18T06:04:19;25.00;53.30
47354;DHT22;50657;48.830;2.282;2022-08-18T06:06:49;24.90;53.20
47354;DHT22;50657;48.830;2.282;2022-08-18T06:09:22;25.00;53.40
47354;DHT22;50657;48.830;2.282;2022-08-18T06:11:50;24.90;53.30
47354;DHT22;50657;48.830;2.282;2022-08-18T06:14:20;24.90;53.30
47354;DHT22;50657;48.830;2.282;2022-08-18T06:16:53;24.90;53.30
47354;DHT22;50657;48.830;2.282;2022-08-18T06:19:32;24.90;53.40
47354;DHT22;50657;48.830;2.282;2022-08-18T06:22:11;24.90;53.40
47354;DHT22;50657;48.830;2.282;2022-08-18T06:24:46;24.90;53.40
47354;DHT22;50657;48.830;2.282;2022-08-18T06:27:21;24.90;53.50
47354;DHT22;50657;48.830;2.282;2022-08-18T06:30:02;24.90;53.50
47354;DHT22;50657;48.830;2.282;2022-08-18T06:32:53;24.90;53.60
47354;DHT22;50657;48.830;2.282;2022-08-18T06:35:28;24.90;53.60
47354;DHT22;50657;48.830;2.282;2022-08-18T06:38:14;24.90;53.70
47354;DHT22;50657;48.830;2.282;2022-08-18T06:41:12;24.90;53.80
47354;DHT22;50657;48.830;2.282;2022-08-18T06:43:48;24.90;54.40
47354;DHT22;50657;48.830;2.282;2022-08-18T06:46:22;24.80;53.80
47354;DHT22;50657;48.830;2.282;2022-08-18T06:48:54;24.90;53.90
47354;DHT22;50657;48.830;2.282;2022-08-18T06:51:26;24.80;53.80
47354;DHT22;50657;48.830;2.282;2022-08-18T06:53:57;24.90;53.90
47354;DHT22;50657;48.830;2.282;2022-08-18T06:56:34;24.90;54.50
47354;DHT22;50657;48.830;2.282;2022-08-18T06:59:18;24.90;53.90
47354;DHT22;50657;48.830;2.282;2022-08-18T07:01:47;24.90;54.00
47354;DHT22;50657;48.830;2.282;2022-08-18T07:04:43;24.90;54.00
47354;DHT22;50657;48.830;2.282;2022-08-18T07:07:30;24.90;54.00
47354;DHT22;50657;48.830;2.282;2022-08-18T07:09:58;24.90;54.20
47354;DHT22;50657;48.830;2.282;2022-08-18T07:12:28;24.90;54.20
47354;DHT22;50657;48.830;2.282;2022-08-18T07:14:57;24.90;54.30
47354;DHT22;50657;48.830;2.282;2022-08-18T07:17:26;24.90;54.40
47354;DHT22;50657;48.830;2.282;2022-08-18T07:20:00;24.90;54.50
47354;DHT22;50657;48.830;2.282;2022-08-18T07:22:28;25.00;54.60
47354;DHT22;50657;48.830;2.282;2022-08-18T07:24:57;25.00;54.60
47354;DHT22;50657;48.830;2.282;2022-08-18T07:27:45;25.10;54.70
47354;DHT22;50657;48.830;2.282;2022-08-18T07:30:26;25.20;54.60
47354;DHT22;50657;48.830;2.282;2022-08-18T07:32:58;25.20;54.60
47354;DHT22;50657;48.830;2.282;2022-08-18T07:35:31;25.20;54.60
47354;DHT22;50657;48.830;2.282;2022-08-18T07:38:03;25.20;54.60
47354;DHT22;50657;48.830;2.282;2022-08-18T07:40:37;25.30;54.60
47354;DHT22;50657;48.830;2.282;2022-08-18T07:43:14;25.40;54.50
47354;DHT22;50657;48.830;2.282;2022-08-18T07:45:45;25.40;54.50
47354;DHT22;50657;48.830;2.282;2022-08-18T07:48:15;25.50;54.60
47354;DHT22;50657;48.830;2.282;2022-08-18T07:50:47;25.60;54.50
47354;DHT22;50657;48.830;2.282;2022-08-18T07:53:28;25.60;54.40
47354;DHT22;50657;48.830;2.282;2022-08-18T07:56:03;25.60;54.30
47354;DHT22;50657;48.830;2.282;2022-08-18T07:58:36;25.70;54.20
47354;DHT22;50657;48.830;2.282;2022-08-18T08:01:09;25.70;54.10
47354;DHT22;50657;48.830;2.282;2022-08-18T08:03:46;25.70;54.00
47354;DHT22;50657;48.830;2.282;2022-08-18T08:06:21;25.80;54.10
47354;DHT22;50657;48.830;2.282;2022-08-18T08:08:55;25.80;54.00
47354;DHT22;50657;48.830;2.282;2022-08-18T08:11:34;25.90;54.00
47354;DHT22;50657;48.830;2.282;2022-08-18T08:14:18;26.00;54.00
47354;DHT22;50657;48.830;2.282;2022-08-18T08:16:52;26.00;54.00
47354;DHT22;50657;48.830;2.282;2022-08-18T08:19:40;26.10;53.90
47354;DHT22;50657;48.830;2.282;2022-08-18T08:22:15;26.10;53.80
47354;DHT22;50657;48.830;2.282;2022-08-18T08:24:49;26.10;53.70
47354;DHT22;50657;48.830;2.282;2022-08-18T08:27:25;26.20;53.70
47354;DHT22;50657;48.830;2.282;2022-08-18T08:30:02;26.30;53.70
47354;DHT22;50657;48.830;2.282;2022-08-18T08:32:31;26.30;53.50
47354;DHT22;50657;48.830;2.282;2022-08-18T08:35:04;26.40;54.10
47354;DHT22;50657;48.830;2.282;2022-08-18T08:37:37;26.40;53.40
47354;DHT22;50657;48.830;2.282;2022-08-18T08:40:08;26.50;53.30
47354;DHT22;50657;48.830;2.282;2022-08-18T08:42:42;26.50;53.20
47354;DHT22;50657;48.830;2.282;2022-08-18T08:45:15;26.60;53.20
47354;DHT22;50657;48.830;2.282;2022-08-18T08:47:57;26.60;53.00
47354;DHT22;50657;48.830;2.282;2022-08-18T08:50:27;26.70;53.60
47354;DHT22;50657;48.830;2.282;2022-08-18T08:52:59;26.80;53.00
47354;DHT22;50657;48.830;2.282;2022-08-18T08:55:32;26.80;52.90
47354;DHT22;50657;48.830;2.282;2022-08-18T08:58:11;26.90;52.70
47354;DHT22;50657;48.830;2.282;2022-08-18T09:00:44;26.90;52.50
47354;DHT22;50657;48.830;2.282;2022-08-18T09:03:23;27.00;52.50
47354;DHT22;50657;48.830;2.282;2022-08-18T09:06:15;27.10;52.30
47354;DHT22;50657;48.830;2.282;2022-08-18T09:09:07;27.10;52.30
47354;DHT22;50657;48.830;2.282;2022-08-18T09:11:50;27.20;52.20
47354;DHT22;50657;48.830;2.282;2022-08-18T09:14:35;27.20;52.10
47354;DHT22;50657;48.830;2.282;2022-08-18T09:17:23;27.30;52.00
47354;DHT22;50657;48.830;2.282;2022-08-18T09:20:08;27.40;52.00
47354;DHT22;50657;48.830;2.282;2022-08-18T09:22:44;27.50;51.90
47354;DHT22;50657;48.830;2.282;2022-08-18T09:25:29;27.50;51.80
47354;DHT22;50657;48.830;2.282;2022-08-18T09:28:06;27.60;51.60
47354;DHT22;50657;48.830;2.282;2022-08-18T09:30:44;27.70;51.40
47354;DHT22;50657;48.830;2.282;2022-08-18T09:33:23;27.70;51.20
47354;DHT22;50657;48.830;2.282;2022-08-18T09:36:04;27.80;50.90
47354;DHT22;50657;48.830;2.282;2022-08-18T09:38:43;27.80;50.70
47354;DHT22;50657;48.830;2.282;2022-08-18T09:41:36;27.80;50.60
47354;DHT22;50657;48.830;2.282;2022-08-18T09:44:13;27.90;50.40
47354;DHT22;50657;48.830;2.282;2022-08-18T09:46:55;27.90;50.20
47354;DHT22;50657;48.830;2.282;2022-08-18T09:49:48;28.00;50.20
47354;DHT22;50657;48.830;2.282;2022-08-18T09:52:48;28.00;50.10
47354;DHT22;50657;48.830;2.282;2022-08-18T09:55:41;28.00;50.00
47354;DHT22;50657;48.830;2.282;2022-08-18T09:58:20;28.00;50.00
47354;DHT22;50657;48.830;2.282;2022-08-18T10:01:30;28.00;50.10
47354;DHT22;50657;48.830;2.282;2022-08-18T10:04:18;28.00;49.90
47354;DHT22;50657;48.830;2.282;2022-08-18T10:06:51;28.10;49.80
47354;DHT22;50657;48.830;2.282;2022-08-18T10:09:27;28.10;49.50
47354;DHT22;50657;48.830;2.282;2022-08-18T10:12:18;28.10;49.10
47354;DHT22;50657;48.830;2.282;2022-08-18T10:15:16;28.20;48.80
47354;DHT22;50657;48.830;2.282;2022-08-18T10:17:54;28.20;48.50
47354;DHT22;50657;48.830;2.282;2022-08-18T10:20:39;28.20;48.60
47354;DHT22;50657;48.830;2.282;2022-08-18T10:23:09;28.30;48.50
47354;DHT22;50657;48.830;2.282;2022-08-18T10:25:39;28.30;48.60
47354;DHT22;50657;48.830;2.282;2022-08-18T10:28:08;28.30;48.40
47354;DHT22;50657;48.830;2.282;2022-08-18T10:33:56;28.40;47.90
47354;DHT22;50657;48.830;2.282;2022-08-18T10:36:40;28.50;47.60
47354;DHT22;50657;48.830;2.282;2022-08-18T10:39:13;28.50;47.30
47354;DHT22;50657;48.830;2.282;2022-08-18T10:42:01;28.50;47.10
47354;DHT22;50657;48.830;2.282;2022-08-18T10:44:31;28.50;46.80
47354;DHT22;50657;48.830;2.282;2022-08-18T10:47:01;28.50;46.60
47354;DHT22;50657;48.830;2.282;2022-08-18T10:49:30;28.60;46.50
47354;DHT22;50657;48.830;2.282;2022-08-18T10:55:27;28.70;46.20
47354;DHT22;50657;48.830;2.282;2022-08-18T10:58:32;28.70;45.90
47354;DHT22;50657;48.830;2.282;2022-08-18T11:01:10;28.70;45.90
47354;DHT22;50657;48.830;2.282;2022-08-18T11:03:58;28.70;45.30
47354;DHT22;50657;48.830;2.282;2022-08-18T11:06:27;28.80;45.40
47354;DHT22;50657;48.830;2.282;2022-08-18T11:08:58;28.80;45.60
47354;DHT22;50657;48.830;2.282;2022-08-18T11:11:33;28.90;45.40
47354;DHT22;50657;48.830;2.282;2022-08-18T11:14:09;28.80;45.10
47354;DHT22;50657;48.830;2.282;2022-08-18T11:16:46;28.90;45.40
47354;DHT22;50657;48.830;2.282;2022-08-18T11:19:17;29.00;45.40
47354;DHT22;50657;48.830;2.282;2022-08-18T11:21:49;29.00;45.30
47354;DHT22;50657;48.830;2.282;2022-08-18T11:24:19;29.00;45.30
47354;DHT22;50657;48.830;2.282;2022-08-18T11:26:51;29.10;45.50
47354;DHT22;50657;48.830;2.282;2022-08-18T11:29:23;29.20;45.30
47354;DHT22;50657;48.830;2.282;2022-08-18T11:31:55;29.20;45.40
47354;DHT22;50657;48.830;2.282;2022-08-18T11:34:28;29.20;45.00
47354;DHT22;50657;48.830;2.282;2022-08-18T11:36:58;29.30;45.00
47354;DHT22;50657;48.830;2.282;2022-08-18T11:39:26;29.40;44.90
47354;DHT22;50657;48.830;2.282;2022-08-18T11:41:54;29.40;44.80
47354;DHT22;50657;48.830;2.282;2022-08-18T11:44:24;29.40;44.80
47354;DHT22;50657;48.830;2.282;2022-08-18T11:47:08;29.40;44.60
47354;DHT22;50657;48.830;2.282;2022-08-18T11:49:36;29.50;44.60
47354;DHT22;50657;48.830;2.282;2022-08-18T11:52:16;29.50;44.40
47354;DHT22;50657;48.830;2.282;2022-08-18T11:54:47;29.60;43.90
47354;DHT22;50657;48.830;2.282;2022-08-18T11:57:30;29.70;43.80
47354;DHT22;50657;48.830;2.282;2022-08-18T11:59:57;29.70;43.80
47354;DHT22;50657;48.830;2.282;2022-08-18T12:02:25;29.70;43.70
47354;DHT22;50657;48.830;2.282;2022-08-18T12:04:55;29.80;43.80
47354;DHT22;50657;48.830;2.282;2022-08-18T12:07:29;29.80;43.80
47354;DHT22;50657;48.830;2.282;2022-08-18T12:10:16;29.90;43.80
47354;DHT22;50657;48.830;2.282;2022-08-18T12:12:48;30.00;43.80
47354;DHT22;50657;48.830;2.282;2022-08-18T12:15:28;30.00;43.70
47354;DHT22;50657;48.830;2.282;2022-08-18T12:17:55;30.10;43.40
47354;DHT22;50657;48.830;2.282;2022-08-18T12:20:23;30.00;43.10
47354;DHT22;50657;48.830;2.282;2022-08-18T12:22:50;30.10;42.60
47354;DHT22;50657;48.830;2.282;2022-08-18T12:25:21;30.10;42.90
47354;DHT22;50657;48.830;2.282;2022-08-18T12:27:49;30.20;41.80
47354;DHT22;50657;48.830;2.282;2022-08-18T12:30:16;30.20;41.60
47354;DHT22;50657;48.830;2.282;2022-08-18T12:32:44;30.20;41.30
47354;DHT22;50657;48.830;2.282;2022-08-18T12:35:11;30.30;42.00
47354;DHT22;50657;48.830;2.282;2022-08-18T12:37:42;30.30;41.60
47354;DHT22;50657;48.830;2.282;2022-08-18T12:40:10;30.40;41.70
47354;DHT22;50657;48.830;2.282;2022-08-18T12:42:38;30.40;41.60
47354;DHT22;50657;48.830;2.282;2022-08-18T12:45:08;30.30;41.60
47354;DHT22;50657;48.830;2.282;2022-08-18T12:47:37;30.40;41.50
47354;DHT22;50657;48.830;2.282;2022-08-18T12:50:06;30.40;41.40
47354;DHT22;50657;48.830;2.282;2022-08-18T12:52:34;30.50;41.30
47354;DHT22;50657;48.830;2.282;2022-08-18T12:55:01;30.50;41.30
47354;DHT22;50657;48.830;2.282;2022-08-18T12:57:28;30.50;41.30
47354;DHT22;50657;48.830;2.282;2022-08-18T12:59:55;30.50;41.10
47354;DHT22;50657;48.830;2.282;2022-08-18T13:02:23;30.60;41.40
47354;DHT22;50657;48.830;2.282;2022-08-18T13:04:50;30.60;41.10
47354;DHT22;50657;48.830;2.282;2022-08-18T13:07:17;30.60;41.10
47354;DHT22;50657;48.830;2.282;2022-08-18T13:09:44;30.60;41.40
47354;DHT22;50657;48.830;2.282;2022-08-18T13:12:12;30.70;41.60
47354;DHT22;50657;48.830;2.282;2022-08-18T13:14:40;30.70;41.70
47354;DHT22;50657;48.830;2.282;2022-08-18T13:17:07;30.70;41.70
47354;DHT22;50657;48.830;2.282;2022-08-18T13:19:36;30.80;41.70
47354;DHT22;50657;48.830;2.282;2022-08-18T13:22:04;30.80;41.70
47354;DHT22;50657;48.830;2.282;2022-08-18T13:24:31;30.80;41.60
47354;DHT22;50657;48.830;2.282;2022-08-18T13:26:58;30.80;41.60
47354;DHT22;50657;48.830;2.282;2022-08-18T13:29:25;30.80;41.60
47354;DHT22;50657;48.830;2.282;2022-08-18T13:31:52;30.80;41.60
47354;DHT22;50657;48.830;2.282;2022-08-18T13:34:23;30.90;41.70
47354;DHT22;50657;48.830;2.282;2022-08-18T13:36:53;30.90;41.70
47354;DHT22;50657;48.830;2.282;2022-08-18T13:39:22;31.00;41.90
47354;DHT22;50657;48.830;2.282;2022-08-18T13:41:51;31.00;42.00
47354;DHT22;50657;48.830;2.282;2022-08-18T13:44:20;31.00;41.90
47354;DHT22;50657;48.830;2.282;2022-08-18T13:46:48;31.10;42.10
47354;DHT22;50657;48.830;2.282;2022-08-18T13:49:18;31.10;42.00
47354;DHT22;50657;48.830;2.282;2022-08-18T13:51:47;31.20;42.20
47354;DHT22;50657;48.830;2.282;2022-08-18T13:54:20;31.20;42.10
47354;DHT22;50657;48.830;2.282;2022-08-18T13:56:48;31.30;41.90
47354;DHT22;50657;48.830;2.282;2022-08-18T13:59:15;31.30;41.70
47354;DHT22;50657;48.830;2.282;2022-08-18T14:01:43;31.40;41.60
47354;DHT22;50657;48.830;2.282;2022-08-18T14:04:11;31.40;41.50
47354;DHT22;50657;48.830;2.282;2022-08-18T14:06:38;31.40;41.40
47354;DHT22;50657;48.830;2.282;2022-08-18T14:09:05;31.50;41.30
47354;DHT22;50657;48.830;2.282;2022-08-18T14:11:35;31.50;41.30
47354;DHT22;50657;48.830;2.282;2022-08-18T14:14:03;31.60;41.50
47354;DHT22;50657;48.830;2.282;2022-08-18T14:16:31;31.60;41.60
47354;DHT22;50657;48.830;2.282;2022-08-18T14:18:59;31.60;41.50
47354;DHT22;50657;48.830;2.282;2022-08-18T14:21:57;31.70;41.70
47354;DHT22;50657;48.830;2.282;2022-08-18T14:24:43;31.80;41.70
47354;DHT22;50657;48.830;2.282;2022-08-18T14:27:31;31.80;41.60
47354;DHT22;50657;48.830;2.282;2022-08-18T14:30:00;31.80;41.80
47354;DHT22;50657;48.830;2.282;2022-08-18T14:32:27;31.80;41.60
47354;DHT22;50657;48.830;2.282;2022-08-18T14:34:55;31.90;41.50
47354;DHT22;50657;48.830;2.282;2022-08-18T14:37:23;32.00;41.20
47354;DHT22;50657;48.830;2.282;2022-08-18T14:39:50;32.00;40.90
47354;DHT22;50657;48.830;2.282;2022-08-18T14:42:18;32.00;40.60
47354;DHT22;50657;48.830;2.282;2022-08-18T14:44:47;32.10;40.50
47354;DHT22;50657;48.830;2.282;2022-08-18T14:47:14;32.10;40.50
47354;DHT22;50657;48.830;2.282;2022-08-18T14:49:41;32.20;40.60
47354;DHT22;50657;48.830;2.282;2022-08-18T14:52:09;32.20;40.60
47354;DHT22;50657;48.830;2.282;2022-08-18T14:54:36;32.20;40.60
47354;DHT22;50657;48.830;2.282;2022-08-18T14:57:04;32.30;40.60
47354;DHT22;50657;48.830;2.282;2022-08-18T14:59:36;32.20;40.40
47354;DHT22;50657;48.830;2.282;2022-08-18T15:02:06;32.30;40.40
47354;DHT22;50657;48.830;2.282;2022-08-18T15:04:34;32.30;40.20
47354;DHT22;50657;48.830;2.282;2022-08-18T15:07:02;32.30;40.00
47354;DHT22;50657;48.830;2.282;2022-08-18T15:09:29;32.30;39.90
47354;DHT22;50657;48.830;2.282;2022-08-18T15:11:58;32.40;39.70
47354;DHT22;50657;48.830;2.282;2022-08-18T15:14:27;32.40;39.60
47354;DHT22;50657;48.830;2.282;2022-08-18T15:16:55;32.40;39.50
47354;DHT22;50657;48.830;2.282;2022-08-18T15:19:24;32.50;39.50
47354;DHT22;50657;48.830;2.282;2022-08-18T15:21:51;32.50;39.30
47354;DHT22;50657;48.830;2.282;2022-08-18T15:24:38;32.50;39.30
47354;DHT22;50657;48.830;2.282;2022-08-18T15:27:29;32.60;39.20
47354;DHT22;50657;48.830;2.282;2022-08-18T15:30:00;32.60;39.00
47354;DHT22;50657;48.830;2.282;2022-08-18T15:32:27;32.60;38.90
47354;DHT22;50657;48.830;2.282;2022-08-18T15:34:55;32.60;38.80
47354;DHT22;50657;48.830;2.282;2022-08-18T15:37:22;32.60;38.70
47354;DHT22;50657;48.830;2.282;2022-08-18T15:39:59;32.60;38.50
47354;DHT22;50657;48.830;2.282;2022-08-18T15:42:27;32.70;38.30
47354;DHT22;50657;48.830;2.282;2022-08-18T15:44:54;32.60;38.10
47354;DHT22;50657;48.830;2.282;2022-08-18T15:47:21;32.70;38.10
47354;DHT22;50657;48.830;2.282;2022-08-18T15:49:49;32.70;38.00
47354;DHT22;50657;48.830;2.282;2022-08-18T15:52:17;32.70;38.00
47354;DHT22;50657;48.830;2.282;2022-08-18T15:54:44;32.70;38.00
47354;DHT22;50657;48.830;2.282;2022-08-18T15:57:11;32.70;38.10
47354;DHT22;50657;48.830;2.282;2022-08-18T15:59:40;32.80;38.10
47354;DHT22;50657;48.830;2.282;2022-08-18T16:02:08;32.80;38.10
47354;DHT22;50657;48.830;2.282;2022-08-18T16:04:35;32.80;38.10
47354;DHT22;50657;48.830;2.282;2022-08-18T16:07:04;32.80;37.90
47354;DHT22;50657;48.830;2.282;2022-08-18T16:09:32;32.80;37.80